»·PEaware :: MISTY21 KLSV-KSNA

MISTY21 :: KLSV-KSNA

FLIGHT INFORMATION

Flight Status: Arrived
Operator: Unknown
More flights by this operator :: More flights under this callsign
Pilot: Anonymous 3903 (3903)
Aircraft: LOCKHEED S-3 VIKING
(S3)
More flights by this aircraft type
Origin: KLSV Nellis AFB
United States
Destination: KSNA John Wayne-Orange Co
United States
More flights between these airports :: More routes between these airports
Route: +DREAM4 ATALF LAS HEC KAYOH7
File this flight plan on PilotEdge
Remarks:
Altitude:
(Current/Filed)
20,000ft
Speed:
(Current/Filed)
450kts
Departed: 11-Apr-17 06:30 PM
Arrived: 11-Apr-17 07:22 PM
Distance/Time
Traveled:
207nm/0:52
Distance/Time
To Go:
Arrived

Flight Plot

Page will automatically refresh every two minutes.

Flight plan parsing failed; only flown route is shown


Map Options




Map Legend


Flown Route
Filed Route
Departure Airport
Arrival Airport
Navaid (VOR, NDB)
Fix

Horizontal Profiles

Position Reports

Time Latitude Longitude Heading Altitude Ground
Speed
11-Apr-17 18:09 36.227372 -115.049394 37 1874ft 0kts
11-Apr-17 18:10 36.227374 -115.049392 37 1874ft 0kts
11-Apr-17 18:11 36.227376 -115.049391 37 1874ft 0kts
11-Apr-17 18:12 36.227376 -115.049391 37 1874ft 0kts
11-Apr-17 18:13 36.227376 -115.049391 37 1874ft 0kts
11-Apr-17 18:14 36.227376 -115.049391 37 1874ft 0kts
11-Apr-17 18:15 36.227376 -115.049391 37 1874ft 0kts
11-Apr-17 18:16 36.227376 -115.049391 37 1874ft 0kts
11-Apr-17 18:17 36.227376 -115.049391 37 1874ft 0kts
11-Apr-17 18:18 36.227376 -115.049391 37 1874ft 0kts
11-Apr-17 18:19 36.227376 -115.049391 37 1874ft 0kts
11-Apr-17 18:20 36.227376 -115.049391 37 1874ft 0kts
11-Apr-17 18:21 36.227376 -115.049391 37 1874ft 0kts
11-Apr-17 18:22 36.227376 -115.049391 37 1874ft 0kts
11-Apr-17 18:23 36.227376 -115.049391 37 1874ft 0kts
11-Apr-17 18:24 36.227376 -115.049391 37 1874ft 0kts
11-Apr-17 18:25 36.227376 -115.049390 37 1874ft 0kts
11-Apr-17 18:26 36.227378 -115.049388 37 1874ft 0kts
11-Apr-17 18:27 36.227391 -115.049375 37 1874ft 0kts
11-Apr-17 18:28 36.227643 -115.049134 39 1874ft 11kts
11-Apr-17 18:29 36.227919 -115.048158 134 1874ft 0kts
11-Apr-17 18:30 36.227132 -115.046331 41 1874ft 0kts
11-Apr-17 18:31 36.240571 -115.031409 44 2309ft 164kts
11-Apr-17 18:32 36.283582 -114.978848 45 5630ft 244kts
11-Apr-17 18:33 36.333515 -114.921016 28 8769ft 246kts
11-Apr-17 18:34 36.400629 -114.887386 347 11037ft 263kts
11-Apr-17 18:35 36.398575 -114.953056 193 13381ft 255kts
11-Apr-17 18:36 36.328041 -114.964326 185 15675ft 253kts
11-Apr-17 18:37 36.259603 -114.982735 223 17172ft 262kts
11-Apr-17 18:38 36.199065 -115.044063 219 18569ft 293kts
11-Apr-17 18:39 36.130770 -115.110988 216 18965ft 336kts
11-Apr-17 18:40 36.055200 -115.184346 218 19011ft 353kts
11-Apr-17 18:41 35.977111 -115.261834 218 19048ft 365kts
11-Apr-17 18:42 35.896786 -115.341055 217 19329ft 359kts
11-Apr-17 18:43 35.820421 -115.416616 218 19974ft 358kts
11-Apr-17 18:44 35.742149 -115.494845 219 19955ft 367kts
11-Apr-17 18:45 35.663789 -115.576044 219 19940ft 370kts
11-Apr-17 18:46 35.584523 -115.656706 222 19961ft 367kts
11-Apr-17 18:47 35.506765 -115.733281 221 19985ft 351kts
11-Apr-17 18:48 35.430596 -115.806472 221 19987ft 346kts
11-Apr-17 18:49 35.354390 -115.878115 220 19991ft 345kts
11-Apr-17 18:50 35.277800 -115.948632 219 19992ft 344kts
11-Apr-17 18:51 35.200454 -116.018360 219 19993ft 345kts
11-Apr-17 18:52 35.122460 -116.087217 219 19996ft 346kts
11-Apr-17 18:53 35.043772 -116.155260 218 19996ft 347kts
11-Apr-17 18:54 34.974059 -116.232944 231 19995ft 343kts
11-Apr-17 18:55 34.905844 -116.314726 229 20011ft 342kts
11-Apr-17 18:56 34.838939 -116.398058 226 20024ft 344kts
11-Apr-17 18:57 34.772475 -116.481306 227 20018ft 344kts
11-Apr-17 18:58 34.704864 -116.563790 228 20029ft 344kts
11-Apr-17 18:59 34.639741 -116.648967 229 20004ft 345kts
11-Apr-17 19:00 34.573579 -116.733593 227 19816ft 347kts
11-Apr-17 19:01 34.505040 -116.818377 228 17229ft 354kts
11-Apr-17 19:02 34.436283 -116.902513 228 15068ft 353kts
11-Apr-17 19:03 34.369000 -116.985922 225 14057ft 333kts
11-Apr-17 19:04 34.303650 -117.066523 227 13041ft 334kts
11-Apr-17 19:05 34.221263 -117.107843 191 13064ft 328kts
11-Apr-17 19:06 34.131428 -117.128372 191 13019ft 328kts
11-Apr-17 19:07 34.037869 -117.145270 190 12121ft 343kts
11-Apr-17 19:08 33.948826 -117.178130 232 11402ft 331kts
11-Apr-17 19:09 33.904390 -117.263231 239 10480ft 274kts
11-Apr-17 19:10 33.864177 -117.340458 234 8007ft 258kts
11-Apr-17 19:11 33.830690 -117.404499 241 8150ft 218kts
11-Apr-17 19:12 33.795158 -117.471543 242 8009ft 232kts
11-Apr-17 19:13 33.777153 -117.538843 280 7975ft 217kts
11-Apr-17 19:14 33.786958 -117.612980 303 7805ft 222kts
11-Apr-17 19:15 33.833307 -117.663708 324 6174ft 244kts
11-Apr-17 19:16 33.877404 -117.717396 266 3989ft 203kts
11-Apr-17 19:17 33.840695 -117.761591 210 2938ft 186kts
11-Apr-17 19:18 33.802732 -117.788171 208 2758ft 157kts
11-Apr-17 19:19 33.770818 -117.808369 209 2003ft 120kts
11-Apr-17 19:20 33.738567 -117.828552 208 1377ft 129kts
11-Apr-17 19:21 33.706433 -117.849213 207 651ft 122kts
11-Apr-17 19:22 33.677051 -117.867967 207 60ft 102kts
11-Apr-17 19:23 33.674171 -117.871333 27 60ft 33kts
11-Apr-17 19:24 33.681651 -117.865449 116 60ft 17kts

Navigation Log

Ident Type
Flight plan parsing failed, navigation log unavailable